sensor_id;sensor_type;location;lat;lon;timestamp;pressure;altitude;pressure_sealevel;temperature;humidity
18504;BME280;9381;54.244;10.074;2023-04-06T14:15:42;101266.31;;;15.22;40.11
18504;BME280;9381;54.244;10.074;2023-04-06T14:20:42;101266.88;;;14.83;41.38
18504;BME280;9381;54.244;10.074;2023-04-06T14:25:44;101275.13;;;14.11;42.35
18504;BME280;9381;54.244;10.074;2023-04-06T14:30:44;101262.41;;;13.87;42.21
18504;BME280;9381;54.244;10.074;2023-04-06T14:35:45;101270.22;;;13.59;41.13
18504;BME280;9381;54.244;10.074;2023-04-06T14:40:45;101263.56;;;13.55;43.09
18504;BME280;9381;54.244;10.074;2023-04-06T14:45:46;101259.44;;;13.28;43.52
18504;BME280;9381;54.244;10.074;2023-04-06T14:50:53;101255.13;;;13.14;43.46
18504;BME280;9381;54.244;10.074;2023-04-06T14:55:53;101252.47;;;13.32;43.10
18504;BME280;9381;54.244;10.074;2023-04-06T15:00:59;101253.47;;;13.38;44.11
18504;BME280;9381;54.244;10.074;2023-04-06T15:06:00;101243.66;;;13.37;44.22
18504;BME280;9381;54.244;10.074;2023-04-06T15:11:00;101247.66;;;13.34;41.55
18504;BME280;9381;54.244;10.074;2023-04-06T15:16:00;101244.53;;;13.31;44.00
18504;BME280;9381;54.244;10.074;2023-04-06T15:21:01;101245.84;;;13.28;44.25
18504;BME280;9381;54.244;10.074;2023-04-06T15:26:01;101244.28;;;13.14;43.61
18504;BME280;9381;54.244;10.074;2023-04-06T15:31:02;101234.72;;;13.05;43.58
18504;BME280;9381;54.244;10.074;2023-04-06T15:36:12;101241.56;;;12.83;44.48
18504;BME280;9381;54.244;10.074;2023-04-06T15:41:22;101231.94;;;12.81;43.76
18504;BME280;9381;54.244;10.074;2023-04-06T15:46:22;101237.38;;;12.81;45.78
18504;BME280;9381;54.244;10.074;2023-04-06T15:51:23;101234.06;;;12.72;44.68
18504;BME280;9381;54.244;10.074;2023-04-06T15:56:23;101229.91;;;12.76;43.88
18504;BME280;9381;54.244;10.074;2023-04-06T16:01:23;101235.78;;;12.67;44.98
18504;BME280;9381;54.244;10.074;2023-04-06T16:06:24;101232.09;;;12.55;44.82
18504;BME280;9381;54.244;10.074;2023-04-06T16:11:26;101240.69;;;12.45;43.55
18504;BME280;9381;54.244;10.074;2023-04-06T16:16:27;101243.41;;;12.45;45.04
18504;BME280;9381;54.244;10.074;2023-04-06T16:21:27;101247.41;;;12.36;46.59
18504;BME280;9381;54.244;10.074;2023-04-06T16:26:28;101251.81;;;12.31;46.35
18504;BME280;9381;54.244;10.074;2023-04-06T16:31:28;101239.59;;;12.15;45.75
18504;BME280;9381;54.244;10.074;2023-04-06T16:36:29;101246.53;;;11.98;45.19
18504;BME280;9381;54.244;10.074;2023-04-06T16:41:31;101249.91;;;11.87;46.29
18504;BME280;9381;54.244;10.074;2023-04-06T16:46:33;101242.41;;;11.83;45.91
18504;BME280;9381;54.244;10.074;2023-04-06T16:51:34;101235.91;;;11.90;46.20
18504;BME280;9381;54.244;10.074;2023-04-06T16:56:36;101234.31;;;11.63;48.30
18504;BME280;9381;54.244;10.074;2023-04-06T17:01:36;101233.06;;;11.53;47.86
18504;BME280;9381;54.244;10.074;2023-04-06T17:06:36;101234.50;;;11.49;48.79
18504;BME280;9381;54.244;10.074;2023-04-06T17:11:37;101246.81;;;11.26;48.95
18504;BME280;9381;54.244;10.074;2023-04-06T17:16:37;101247.88;;;11.05;49.74
18504;BME280;9381;54.244;10.074;2023-04-06T17:21:38;101249.09;;;10.96;50.97
18504;BME280;9381;54.244;10.074;2023-04-06T17:26:40;101249.06;;;10.90;52.68
18504;BME280;9381;54.244;10.074;2023-04-06T17:31:43;101255.28;;;10.71;55.78
18504;BME280;9381;54.244;10.074;2023-04-06T17:36:44;101253.53;;;10.44;57.61
18504;BME280;9381;54.244;10.074;2023-04-06T17:41:44;101261.19;;;10.34;58.31
18504;BME280;9381;54.244;10.074;2023-04-06T17:46:44;101272.25;;;10.32;58.85
18504;BME280;9381;54.244;10.074;2023-04-06T17:51:45;101272.56;;;10.10;59.40
18504;BME280;9381;54.244;10.074;2023-04-06T17:56:45;101279.13;;;10.01;59.77
18504;BME280;9381;54.244;10.074;2023-04-06T18:01:48;101287.44;;;9.72;60.82
18504;BME280;9381;54.244;10.074;2023-04-06T18:06:48;101289.13;;;9.73;60.89
18504;BME280;9381;54.244;10.074;2023-04-06T18:11:48;101285.50;;;9.59;61.59
18504;BME280;9381;54.244;10.074;2023-04-06T18:16:49;101300.88;;;9.59;62.17
18504;BME280;9381;54.244;10.074;2023-04-06T18:21:49;101308.72;;;9.54;63.77
18504;BME280;9381;54.244;10.074;2023-04-06T18:26:50;101308.00;;;9.18;66.11
18504;BME280;9381;54.244;10.074;2023-04-06T18:31:50;101309.41;;;9.14;66.86
18504;BME280;9381;54.244;10.074;2023-04-06T18:36:53;101320.84;;;9.16;67.80
18504;BME280;9381;54.244;10.074;2023-04-06T18:41:54;101317.31;;;8.94;68.15
18504;BME280;9381;54.244;10.074;2023-04-06T18:46:54;101323.53;;;8.74;68.45
18504;BME280;9381;54.244;10.074;2023-04-06T18:51:55;101326.25;;;8.60;69.61
18504;BME280;9381;54.244;10.074;2023-04-06T18:56:58;101330.75;;;8.38;69.95
18504;BME280;9381;54.244;10.074;2023-04-06T19:01:58;101333.53;;;8.30;71.08
18504;BME280;9381;54.244;10.074;2023-04-06T19:06:59;101329.41;;;8.05;72.07
18504;BME280;9381;54.244;10.074;2023-04-06T19:11:59;101337.41;;;7.84;72.42
18504;BME280;9381;54.244;10.074;2023-04-06T19:17:00;101342.47;;;7.65;73.94
18504;BME280;9381;54.244;10.074;2023-04-06T19:22:00;101339.75;;;7.50;74.41
18504;BME280;9381;54.244;10.074;2023-04-06T19:27:00;101337.72;;;7.52;73.95
18504;BME280;9381;54.244;10.074;2023-04-06T19:32:01;101345.63;;;7.31;75.49
18504;BME280;9381;54.244;10.074;2023-04-06T19:37:02;101346.34;;;7.25;76.08
18504;BME280;9381;54.244;10.074;2023-04-06T19:42:02;101348.41;;;7.23;76.14
18504;BME280;9381;54.244;10.074;2023-04-06T19:47:03;101349.47;;;7.14;76.37
18504;BME280;9381;54.244;10.074;2023-04-06T19:52:04;101347.16;;;7.11;77.44
18504;BME280;9381;54.244;10.074;2023-04-06T19:57:05;101355.31;;;6.95;77.94
18504;BME280;9381;54.244;10.074;2023-04-06T20:02:05;101354.72;;;6.85;78.16
18504;BME280;9381;54.244;10.074;2023-04-06T20:07:07;101356.16;;;6.73;79.26
18504;BME280;9381;54.244;10.074;2023-04-06T20:12:07;101352.88;;;6.86;78.52
18504;BME280;9381;54.244;10.074;2023-04-06T20:17:07;101354.59;;;6.79;79.26
18504;BME280;9381;54.244;10.074;2023-04-06T20:22:08;101352.84;;;6.63;79.38
18504;BME280;9381;54.244;10.074;2023-04-06T20:27:08;101356.91;;;6.51;79.93
18504;BME280;9381;54.244;10.074;2023-04-06T20:32:09;101353.59;;;6.41;80.30
18504;BME280;9381;54.244;10.074;2023-04-06T20:37:10;101354.63;;;6.40;80.89
18504;BME280;9381;54.244;10.074;2023-04-06T20:42:11;101362.28;;;6.51;79.93
18504;BME280;9381;54.244;10.074;2023-04-06T20:47:11;101359.75;;;6.58;79.42
18504;BME280;9381;54.244;10.074;2023-04-06T20:52:11;101364.69;;;6.46;79.46
18504;BME280;9381;54.244;10.074;2023-04-06T20:57:12;101353.72;;;6.48;79.62
18504;BME280;9381;54.244;10.074;2023-04-06T21:02:12;101368.41;;;6.37;80.03
18504;BME280;9381;54.244;10.074;2023-04-06T21:07:13;101364.34;;;6.41;79.68
18504;BME280;9381;54.244;10.074;2023-04-06T21:12:13;101355.47;;;6.41;79.53
18504;BME280;9381;54.244;10.074;2023-04-06T21:17:13;101359.28;;;6.54;78.83
18504;BME280;9381;54.244;10.074;2023-04-06T21:22:14;101356.13;;;6.43;79.19
18504;BME280;9381;54.244;10.074;2023-04-06T21:27:14;101352.59;;;6.73;77.16
18504;BME280;9381;54.244;10.074;2023-04-06T21:32:14;101356.59;;;6.54;77.49
18504;BME280;9381;54.244;10.074;2023-04-06T21:37:15;101360.50;;;6.74;76.40
18504;BME280;9381;54.244;10.074;2023-04-06T21:42:18;101355.53;;;6.63;75.98
18504;BME280;9381;54.244;10.074;2023-04-06T21:47:21;101362.22;;;6.67;75.37
18504;BME280;9381;54.244;10.074;2023-04-06T21:52:22;101357.84;;;6.66;74.86
18504;BME280;9381;54.244;10.074;2023-04-06T21:57:22;101350.13;;;6.71;74.37
18504;BME280;9381;54.244;10.074;2023-04-06T22:02:22;101349.91;;;6.73;74.13
18504;BME280;9381;54.244;10.074;2023-04-06T22:07:23;101346.78;;;6.61;73.59
18504;BME280;9381;54.244;10.074;2023-04-06T22:12:24;101349.88;;;6.50;73.92
18504;BME280;9381;54.244;10.074;2023-04-06T22:17:24;101344.38;;;6.44;74.20
18504;BME280;9381;54.244;10.074;2023-04-06T22:22:25;101345.22;;;6.44;73.87
18504;BME280;9381;54.244;10.074;2023-04-06T22:27:26;101354.97;;;6.37;73.31
18504;BME280;9381;54.244;10.074;2023-04-06T22:32:26;101351.75;;;6.42;73.15
18504;BME280;9381;54.244;10.074;2023-04-06T22:37:27;101355.34;;;6.34;73.60
18504;BME280;9381;54.244;10.074;2023-04-06T22:42:27;101354.69;;;6.24;73.38
18504;BME280;9381;54.244;10.074;2023-04-06T22:47:27;101363.06;;;6.29;73.11
18504;BME280;9381;54.244;10.074;2023-04-06T22:52:28;101359.84;;;6.34;72.67
18504;BME280;9381;54.244;10.074;2023-04-06T22:57:28;101358.69;;;6.36;72.24
18504;BME280;9381;54.244;10.074;2023-04-06T23:02:28;101363.34;;;6.42;71.63
18504;BME280;9381;54.244;10.074;2023-04-06T23:07:29;101370.06;;;6.46;71.28
18504;BME280;9381;54.244;10.074;2023-04-06T23:12:31;101372.41;;;6.41;71.44
18504;BME280;9381;54.244;10.074;2023-04-06T23:17:31;101362.66;;;6.48;71.67
18504;BME280;9381;54.244;10.074;2023-04-06T23:22:32;101370.72;;;6.48;71.66
18504;BME280;9381;54.244;10.074;2023-04-06T23:27:32;101381.22;;;6.27;72.33
18504;BME280;9381;54.244;10.074;2023-04-06T23:32:32;101375.81;;;6.35;72.03
18504;BME280;9381;54.244;10.074;2023-04-06T23:37:33;101370.59;;;6.34;71.98
18504;BME280;9381;54.244;10.074;2023-04-06T23:42:33;101377.69;;;6.27;72.76
18504;BME280;9381;54.244;10.074;2023-04-06T23:47:33;101369.94;;;6.32;72.15
18504;BME280;9381;54.244;10.074;2023-04-06T23:52:34;101372.16;;;6.20;72.52
18504;BME280;9381;54.244;10.074;2023-04-06T23:57:34;101372.50;;;6.25;72.25
